Time;durP1;ratioP1;P1;durP2;ratioP2;P2;SDS_P1;SDS_P2;PMS_P1;PMS_P2;Temp;Humidity;BMP_temperature;BMP_pressure;BME280_temperature;BME280_humidity;BME280_pressure;Samples;Min_cycle;Max_cycle;Signal;HPM_P1;HPM_P2
2023/03/26 00:01:28;;;;;;;28.23;3.97;;;7.50;99.90;;;;;;5062855;28;20040;-64
2023/03/26 00:03:56;;;;;;;17.67;3.38;;;7.50;99.90;;;;;;5054547;28;20648;-63
2023/03/26 00:06:28;;;;;;;24.77;4.18;;;7.50;99.90;;;;;;5047458;28;20048;-64
2023/03/26 00:08:56;;;;;;;31.48;3.25;;;7.50;99.90;;;;;;5051151;28;20048;-64
2023/03/26 00:11:23;;;;;;;22.42;3.67;;;7.50;99.90;;;;;;5069308;28;20036;-64
2023/03/26 00:13:52;;;;;;;22.98;3.10;;;7.50;99.90;;;;;;5069727;28;20051;-64
2023/03/26 00:16:19;;;;;;;29.35;3.90;;;7.50;99.90;;;;;;5068584;28;20115;-63
2023/03/26 00:18:47;;;;;;;26.73;3.80;;;7.50;99.90;;;;;;5052150;28;20064;-64
2023/03/26 00:21:16;;;;;;;21.98;3.75;;;7.50;99.90;;;;;;5068407;28;20068;-63
2023/03/26 00:23:42;;;;;;;25.45;4.22;;;7.40;99.90;;;;;;5051560;28;20048;-64
2023/03/26 00:26:09;;;;;;;26.00;4.28;;;7.40;99.90;;;;;;5069442;28;20033;-64
2023/03/26 00:28:40;;;;;;;33.03;4.82;;;7.40;99.90;;;;;;5068630;28;20479;-64
2023/03/26 00:31:11;;;;;;;25.85;3.83;;;7.40;99.90;;;;;;5034655;28;20048;-64
2023/03/26 00:33:39;;;;;;;21.80;3.67;;;7.40;99.90;;;;;;5053549;28;20392;-63
2023/03/26 00:36:13;;;;;;;24.55;3.40;;;7.40;99.90;;;;;;5064070;28;20123;-63
2023/03/26 00:38:39;;;;;;;25.50;2.90;;;7.40;99.90;;;;;;5068455;28;20040;-63
2023/03/26 00:41:16;;;;;;;21.73;2.95;;;7.40;99.90;;;;;;5069092;28;20052;-64
2023/03/26 00:43:45;;;;;;;20.20;2.65;;;7.30;99.90;;;;;;5056454;28;20048;-64
2023/03/26 00:46:12;;;;;;;18.52;2.38;;;7.30;99.90;;;;;;5050672;28;20064;-63
2023/03/26 00:48:38;;;;;;;22.92;3.20;;;7.30;99.90;;;;;;5068806;28;20048;-64
2023/03/26 00:51:05;;;;;;;9.77;1.67;;;7.30;99.90;;;;;;5068057;28;20053;-64
2023/03/26 00:53:32;;;;;;;13.90;2.40;;;7.30;99.90;;;;;;5068754;28;20072;-64
2023/03/26 00:55:59;;;;;;;23.48;4.97;;;7.30;99.90;;;;;;5050991;28;20102;-64
2023/03/26 00:58:28;;;;;;;24.35;4.00;;;7.30;99.90;;;;;;5067643;28;20053;-64
2023/03/26 01:01:01;;;;;;;27.10;4.13;;;7.20;99.90;;;;;;5066496;28;20044;-64
2023/03/26 01:03:29;;;;;;;19.48;3.20;;;7.20;99.90;;;;;;5049461;28;20043;-64
2023/03/26 01:06:26;;;;;;;27.95;3.65;;;7.20;99.90;;;;;;5069253;28;20055;-64
2023/03/26 01:08:58;;;;;;;28.50;4.43;;;7.20;99.90;;;;;;5067399;28;20127;-64
2023/03/26 01:11:28;;;;;;;19.48;2.95;;;7.10;99.90;;;;;;5067577;28;20033;-64
2023/03/26 01:14:03;;;;;;;21.33;3.65;;;7.10;99.90;;;;;;5068529;28;20102;-64
2023/03/26 01:16:53;;;;;;;18.90;2.45;;;7.10;99.90;;;;;;5067945;28;20036;-64
2023/03/26 01:19:43;;;;;;;22.60;3.40;;;7.10;99.90;;;;;;5068053;28;20044;-63
2023/03/26 01:22:15;;;;;;;23.48;3.50;;;7.10;99.90;;;;;;5068279;28;20507;-64
2023/03/26 01:24:42;;;;;;;19.63;2.50;;;7.10;99.90;;;;;;5067863;28;20446;-64
2023/03/26 01:27:32;;;;;;;40.08;5.40;;;7.10;99.90;;;;;;5068469;28;20509;-64
2023/03/26 01:30:23;;;;;;;27.60;4.38;;;7.00;99.90;;;;;;5049611;28;20127;-64
2023/03/26 01:32:52;;;;;;;26.23;3.67;;;7.10;99.90;;;;;;5032805;28;20052;-64
2023/03/26 01:35:44;;;;;;;17.63;2.63;;;7.00;99.90;;;;;;5049885;28;20470;-63
2023/03/26 01:38:21;;;;;;;30.90;4.15;;;7.00;99.90;;;;;;5067609;28;20075;-64
2023/03/26 01:41:09;;;;;;;22.85;3.67;;;7.00;99.90;;;;;;5059482;28;20124;-64
2023/03/26 01:43:57;;;;;;;17.48;2.65;;;6.90;99.90;;;;;;5030195;28;20597;-63
2023/03/26 01:46:26;;;;;;;27.13;4.03;;;6.90;99.90;;;;;;5067862;28;20059;-63
2023/03/26 01:48:51;;;;;;;33.80;4.43;;;6.90;99.90;;;;;;5033941;28;20136;-63
2023/03/26 01:51:35;;;;;;;27.73;4.15;;;6.80;99.90;;;;;;5067087;28;20473;-64
2023/03/26 01:54:04;;;;;;;30.98;4.25;;;6.90;99.90;;;;;;5050188;28;20131;-64
2023/03/26 01:56:51;;;;;;;24.17;3.60;;;6.90;99.90;;;;;;5067192;28;20054;-63
2023/03/26 01:59:47;;;;;;;23.75;3.38;;;6.80;99.90;;;;;;5049573;28;20052;-63
2023/03/26 02:02:38;;;;;;;25.38;4.35;;;6.80;99.90;;;;;;5064845;28;20048;-64
2023/03/26 02:05:23;;;;;;;24.13;3.30;;;6.80;99.90;;;;;;5067579;28;20419;-63
2023/03/26 02:07:52;;;;;;;32.42;3.92;;;6.80;99.90;;;;;;5067066;28;20120;-64
2023/03/26 02:10:30;;;;;;;24.65;4.43;;;6.70;99.90;;;;;;5067121;28;20441;-64
2023/03/26 02:12:57;;;;;;;30.33;4.43;;;6.70;99.90;;;;;;5053274;28;20044;-63
2023/03/26 02:15:24;;;;;;;20.10;2.83;;;6.70;99.90;;;;;;5067637;28;20515;-63
2023/03/26 02:17:51;;;;;;;23.67;3.60;;;6.70;99.90;;;;;;5048745;28;20048;-64
2023/03/26 02:20:18;;;;;;;26.73;3.83;;;6.60;99.90;;;;;;5066959;28;20045;-64
2023/03/26 02:22:46;;;;;;;17.02;3.47;;;6.50;99.90;;;;;;5045890;28;20167;-63
2023/03/26 02:25:14;;;;;;;16.27;3.63;;;6.50;99.90;;;;;;5066618;28;20115;-63
2023/03/26 02:27:40;;;;;;;20.98;3.72;;;6.40;99.90;;;;;;5048492;28;20051;-64
2023/03/26 02:30:09;;;;;;;23.58;3.78;;;6.40;99.90;;;;;;5048505;28;20120;-64
2023/03/26 02:32:35;;;;;;;22.65;2.88;;;6.40;99.90;;;;;;5066654;28;20604;-64
2023/03/26 02:35:01;;;;;;;18.55;2.63;;;6.30;99.90;;;;;;5066203;28;20080;-64
2023/03/26 02:37:29;;;;;;;22.33;3.38;;;6.30;99.90;;;;;;5067212;28;20152;-63
2023/03/26 02:39:55;;;;;;;27.55;3.35;;;6.20;99.90;;;;;;5065497;28;20032;-64
2023/03/26 02:42:21;;;;;;;29.77;4.15;;;6.20;99.90;;;;;;5066737;28;20054;-64
2023/03/26 02:44:46;;;;;;;23.50;3.10;;;6.20;99.90;;;;;;5065934;28;20044;-64
2023/03/26 02:47:12;;;;;;;19.58;3.53;;;6.20;99.90;;;;;;5065836;28;20063;-64
2023/03/26 02:49:38;;;;;;;26.27;4.30;;;6.20;99.90;;;;;;5048138;28;20052;-64
2023/03/26 02:52:05;;;;;;;31.42;4.10;;;6.20;99.90;;;;;;5047600;28;20090;-64
2023/03/26 02:54:33;;;;;;;30.73;3.53;;;6.20;99.90;;;;;;5066336;28;20056;-64
2023/03/26 02:56:59;;;;;;;22.00;2.90;;;6.20;99.90;;;;;;5064971;28;20056;-64
2023/03/26 02:59:25;;;;;;;18.25;2.72;;;6.10;99.90;;;;;;5066947;28;20648;-64
2023/03/26 03:01:50;;;;;;;21.92;2.95;;;6.10;99.90;;;;;;5031154;28;20037;-64
2023/03/26 03:04:16;;;;;;;25.48;4.13;;;6.10;99.90;;;;;;5048615;28;20048;-64
2023/03/26 03:06:43;;;;;;;17.92;2.67;;;6.00;99.90;;;;;;5066523;28;20045;-64
2023/03/26 03:09:10;;;;;;;18.30;2.92;;;6.10;99.90;;;;;;5065971;28;20163;-64
2023/03/26 03:11:37;;;;;;;35.45;3.53;;;6.00;99.90;;;;;;5049083;28;20052;-64
2023/03/26 03:14:03;;;;;;;21.75;3.55;;;6.00;99.90;;;;;;5047778;28;20095;-64
2023/03/26 03:16:29;;;;;;;22.35;2.80;;;6.00;99.90;;;;;;5066694;28;20071;-64
2023/03/26 03:18:57;;;;;;;19.17;3.15;;;6.00;99.90;;;;;;5065902;28;20529;-64
2023/03/26 03:21:26;;;;;;;23.45;3.20;;;5.90;99.90;;;;;;5066422;28;20904;-64
2023/03/26 03:23:52;;;;;;;30.10;3.60;;;6.00;99.90;;;;;;5065878;28;20052;-64
2023/03/26 03:26:21;;;;;;;15.15;2.83;;;6.00;99.90;;;;;;5047724;28;20041;-64
2023/03/26 03:28:50;;;;;;;20.60;3.37;;;5.90;99.90;;;;;;5066877;28;20519;-64
2023/03/26 03:31:17;;;;;;;23.70;3.20;;;6.00;99.90;;;;;;5066329;28;20036;-64
2023/03/26 03:33:45;;;;;;;22.33;3.10;;;6.00;99.90;;;;;;5065976;28;20428;-64
2023/03/26 03:36:12;;;;;;;21.13;3.08;;;6.00;99.90;;;;;;5066427;28;20051;-64
2023/03/26 03:38:40;;;;;;;28.13;4.70;;;6.00;99.90;;;;;;5066449;28;20040;-63
2023/03/26 03:41:07;;;;;;;30.63;3.88;;;6.00;99.90;;;;;;5049976;28;20060;-64
2023/03/26 03:43:33;;;;;;;28.45;4.45;;;6.10;99.90;;;;;;5069635;28;20489;-64
2023/03/26 03:46:00;;;;;;;22.40;3.03;;;6.10;99.90;;;;;;5068271;28;20716;-64
2023/03/26 03:48:26;;;;;;;26.30;3.47;;;6.20;99.90;;;;;;5051651;28;20063;-64
2023/03/26 03:50:53;;;;;;;32.40;4.65;;;6.20;99.90;;;;;;5069723;28;20044;-64
2023/03/26 03:53:20;;;;;;;27.65;3.40;;;6.20;99.90;;;;;;5069789;28;20056;-64
2023/03/26 03:55:52;;;;;;;32.80;4.10;;;6.20;99.90;;;;;;5051454;28;20055;-64
2023/03/26 03:58:21;;;;;;;25.40;3.50;;;6.20;99.90;;;;;;5052899;28;20060;-64
2023/03/26 04:00:51;;;;;;;28.27;4.05;;;6.20;99.90;;;;;;5051383;28;20813;-64
2023/03/26 04:03:18;;;;;;;21.42;3.13;;;6.20;99.90;;;;;;5052240;28;20147;-64
2023/03/26 04:05:48;;;;;;;33.33;3.35;;;6.20;99.90;;;;;;5069269;28;20045;-64
2023/03/26 04:08:17;;;;;;;26.77;3.38;;;6.20;99.90;;;;;;5052269;28;20483;-64
2023/03/26 04:10:43;;;;;;;27.05;4.03;;;6.20;99.90;;;;;;5069110;28;20059;-64
2023/03/26 04:13:14;;;;;;;25.15;3.75;;;6.30;99.90;;;;;;5069319;28;20322;-64
2023/03/26 04:15:41;;;;;;;24.65;3.88;;;6.20;99.90;;;;;;5069597;28;20079;-64
2023/03/26 04:18:09;;;;;;;31.50;5.70;;;6.20;99.90;;;;;;5068705;28;20052;-64
2023/03/26 04:20:40;;;;;;;28.27;3.38;;;6.20;99.90;;;;;;5069447;28;20067;-64
2023/03/26 04:23:12;;;;;;;26.35;3.60;;;6.20;99.90;;;;;;5068837;28;20458;-64
2023/03/26 04:25:42;;;;;;;26.10;3.65;;;6.20;99.90;;;;;;5051515;28;20037;-64
2023/03/26 04:28:10;;;;;;;24.27;3.42;;;6.20;99.90;;;;;;5069001;28;20041;-64
2023/03/26 04:30:37;;;;;;;26.85;3.03;;;6.20;99.90;;;;;;5068813;28;20040;-64
2023/03/26 04:33:05;;;;;;;25.35;3.33;;;6.20;99.90;;;;;;5068470;28;20040;-64
2023/03/26 04:35:33;;;;;;;24.25;3.60;;;6.10;99.90;;;;;;5068765;28;20040;-64
2023/03/26 04:38:06;;;;;;;27.83;3.70;;;6.10;99.90;;;;;;5034432;28;20056;-64
2023/03/26 04:40:33;;;;;;;22.65;3.15;;;6.10;99.90;;;;;;5069005;28;20226;-64
2023/03/26 04:43:01;;;;;;;35.05;3.92;;;6.10;99.90;;;;;;5068578;28;20040;-64
2023/03/26 04:45:29;;;;;;;20.55;2.70;;;6.10;99.90;;;;;;5068919;28;20048;-64
2023/03/26 04:47:58;;;;;;;21.15;3.53;;;6.10;99.90;;;;;;5068354;28;20052;-64
2023/03/26 04:50:25;;;;;;;24.52;3.42;;;6.10;99.90;;;;;;5068974;28;20171;-64
2023/03/26 04:52:53;;;;;;;31.20;4.70;;;6.10;99.90;;;;;;5049587;28;20114;-64
2023/03/26 04:55:29;;;;;;;27.33;5.10;;;6.10;99.90;;;;;;5069211;28;20406;-64
2023/03/26 04:58:04;;;;;;;24.70;3.13;;;6.10;99.90;;;;;;5068503;28;20056;-64
2023/03/26 05:00:30;;;;;;;24.38;3.15;;;6.10;99.90;;;;;;5068745;28;20045;-64
2023/03/26 05:03:00;;;;;;;26.27;4.40;;;6.10;99.90;;;;;;5049649;28;20052;-64
2023/03/26 05:05:27;;;;;;;20.85;2.55;;;6.10;99.90;;;;;;5068386;28;20036;-64
2023/03/26 05:07:54;;;;;;;22.00;3.78;;;6.10;99.00;;;;;;5068787;28;20098;-64
2023/03/26 05:10:20;;;;;;;24.38;3.33;;;6.10;99.40;;;;;;5068315;28;20494;-64
2023/03/26 05:12:47;;;;;;;26.40;3.15;;;6.00;99.30;;;;;;5067652;28;20436;-64
2023/03/26 05:15:13;;;;;;;25.80;3.05;;;6.00;99.90;;;;;;5067929;28;20106;-64
2023/03/26 05:17:40;;;;;;;23.60;3.90;;;6.00;99.90;;;;;;5050228;28;20097;-64
2023/03/26 05:20:28;;;;;;;23.65;2.45;;;6.10;97.40;;;;;;5068315;28;20049;-64
2023/03/26 05:22:54;;;;;;;20.80;3.22;;;6.00;95.60;;;;;;5067584;28;20525;-64
2023/03/26 05:25:20;;;;;;;18.55;2.63;;;6.00;93.20;;;;;;5050453;28;20048;-64
2023/03/26 05:27:46;;;;;;;20.70;3.00;;;6.10;95.00;;;;;;5050120;28;20059;-64
2023/03/26 05:30:18;;;;;;;27.90;3.72;;;6.00;94.70;;;;;;5068114;28;20047;-64
2023/03/26 05:32:46;;;;;;;26.52;3.90;;;6.00;95.10;;;;;;5049685;28;20457;-64
2023/03/26 05:35:11;;;;;;;21.65;3.28;;;6.00;94.80;;;;;;5032934;28;20036;-64
2023/03/26 05:37:37;;;;;;;24.35;3.60;;;6.10;96.30;;;;;;5068163;28;20059;-64
2023/03/26 05:40:10;;;;;;;23.60;2.97;;;6.10;97.00;;;;;;5032376;28;20044;-64
2023/03/26 05:42:36;;;;;;;17.77;3.13;;;6.10;97.90;;;;;;5050280;28;20048;-64
2023/03/26 05:45:01;;;;;;;24.70;2.75;;;6.10;97.70;;;;;;5040927;28;20483;-65
2023/03/26 05:47:27;;;;;;;25.55;3.55;;;6.00;97.10;;;;;;5067548;28;20044;-64
2023/03/26 05:49:53;;;;;;;23.08;3.63;;;6.10;97.60;;;;;;5067555;28;20058;-65
2023/03/26 05:52:19;;;;;;;20.85;3.10;;;6.10;98.50;;;;;;5049284;28;20362;-64
2023/03/26 05:54:44;;;;;;;16.50;2.92;;;6.10;97.80;;;;;;5049256;28;20048;-64
2023/03/26 05:57:10;;;;;;;19.88;3.03;;;6.10;94.40;;;;;;5066970;28;20029;-63
2023/03/26 05:59:36;;;;;;;20.15;3.88;;;6.10;92.80;;;;;;5050511;28;20036;-62
2023/03/26 06:02:02;;;;;;;24.75;3.08;;;6.10;94.80;;;;;;5066654;28;20426;-62
2023/03/26 06:04:28;;;;;;;25.35;3.67;;;6.10;93.70;;;;;;5067218;28;20080;-63
2023/03/26 06:06:53;;;;;;;20.52;3.55;;;6.20;94.10;;;;;;5067073;28;20095;-62
2023/03/26 06:09:20;;;;;;;20.23;3.15;;;6.10;93.60;;;;;;5032203;28;20471;-62
2023/03/26 06:11:46;;;;;;;24.30;3.17;;;6.10;92.60;;;;;;5049220;28;20392;-62
2023/03/26 06:14:11;;;;;;;25.20;3.97;;;6.20;94.10;;;;;;5066725;28;20055;-62
2023/03/26 06:16:37;;;;;;;25.90;3.70;;;6.20;91.40;;;;;;5067336;28;20139;-62
2023/03/26 06:19:03;;;;;;;28.38;3.08;;;6.20;92.70;;;;;;5066498;28;20036;-62
2023/03/26 06:21:29;;;;;;;23.33;3.40;;;6.20;91.40;;;;;;5067482;28;20479;-62
2023/03/26 06:23:55;;;;;;;20.85;3.58;;;6.20;91.40;;;;;;5048838;28;20078;-63
2023/03/26 06:26:21;;;;;;;29.92;3.40;;;6.30;89.40;;;;;;5066564;28;20135;-62
2023/03/26 06:28:47;;;;;;;13.35;2.13;;;6.30;86.40;;;;;;5048923;28;20255;-62
2023/03/26 06:31:12;;;;;;;15.00;3.00;;;6.30;89.70;;;;;;5031444;28;20123;-62
2023/03/26 06:33:38;;;;;;;19.27;2.63;;;6.30;83.90;;;;;;5049408;28;20542;-62
2023/03/26 06:36:06;;;;;;;21.77;3.40;;;6.30;75.40;;;;;;5066256;28;20494;-62
2023/03/26 06:38:31;;;;;;;28.25;3.33;;;6.40;80.20;;;;;;5049260;28;20123;-62
2023/03/26 06:41:05;;;;;;;28.73;3.47;;;6.50;88.40;;;;;;5066318;28;20128;-62
2023/03/26 06:43:35;;;;;;;20.95;2.80;;;6.50;85.80;;;;;;5066609;28;20098;-63
2023/03/26 06:46:01;;;;;;;17.92;2.67;;;6.50;90.10;;;;;;5060259;28;20045;-62
2023/03/26 06:48:27;;;;;;;21.75;3.72;;;6.60;89.40;;;;;;5063114;28;20470;-62
2023/03/26 06:50:53;;;;;;;17.83;3.58;;;6.60;90.80;;;;;;5037937;28;20049;-62
2023/03/26 06:53:19;;;;;;;20.10;2.92;;;6.60;84.70;;;;;;5050130;28;20047;-62
2023/03/26 06:55:45;;;;;;;19.10;2.60;;;6.50;77.30;;;;;;5037595;28;20056;-62
2023/03/26 06:58:11;;;;;;;14.65;2.90;;;6.60;82.40;;;;;;5065827;28;20044;-63
2023/03/26 07:00:37;;;;;;;22.77;3.60;;;6.60;83.00;;;;;;5066835;28;20430;-62
2023/03/26 07:03:04;;;;;;;21.70;3.42;;;6.60;80.80;;;;;;5066589;28;20067;-62
2023/03/26 07:05:30;;;;;;;23.23;3.25;;;6.60;83.10;;;;;;5065555;28;20653;-62
2023/03/26 07:07:55;;;;;;;23.65;3.13;;;6.70;88.80;;;;;;5048426;28;20139;-62
2023/03/26 07:10:21;;;;;;;19.10;3.35;;;6.70;84.10;;;;;;5064127;28;20547;-65
2023/03/26 07:12:47;;;;;;;16.67;2.83;;;6.70;85.00;;;;;;5063095;28;20072;-65
2023/03/26 07:15:13;;;;;;;23.02;2.92;;;6.70;78.50;;;;;;5047325;28;20049;-65
2023/03/26 07:17:38;;;;;;;22.02;3.63;;;6.60;81.00;;;;;;5052509;28;20155;-65
2023/03/26 07:20:06;;;;;;;37.25;4.40;;;6.60;79.00;;;;;;5069670;28;20033;-65
2023/03/26 07:22:33;;;;;;;31.20;3.45;;;6.60;79.60;;;;;;5047899;28;20759;-65
2023/03/26 07:25:00;;;;;;;31.00;3.33;;;6.60;75.80;;;;;;5067355;28;20041;-65
2023/03/26 07:27:36;;;;;;;25.23;2.83;;;6.60;78.40;;;;;;5061367;28;20048;-65
2023/03/26 07:30:24;;;;;;;20.58;3.10;;;6.60;82.40;;;;;;5051284;28;20045;-65
2023/03/26 07:33:03;;;;;;;25.83;3.50;;;6.60;78.40;;;;;;5041000;28;20056;-65
2023/03/26 07:35:40;;;;;;;18.75;3.13;;;6.60;75.00;;;;;;5070076;28;20050;-65
2023/03/26 07:38:31;;;;;;;27.98;3.28;;;6.70;81.10;;;;;;5069635;28;20067;-64
2023/03/26 07:41:38;;;;;;;23.73;3.28;;;6.70;82.00;;;;;;5067407;28;20055;-65
2023/03/26 07:44:46;;;;;;;26.55;3.03;;;6.70;81.40;;;;;;5003011;28;20089;-65
2023/03/26 07:47:38;;;;;;;15.90;3.15;;;6.80;80.20;;;;;;4977320;28;20572;-64
2023/03/26 07:50:05;;;;;;;28.67;3.03;;;6.80;78.00;;;;;;4984902;28;20058;-65
2023/03/26 07:52:31;;;;;;;16.63;3.40;;;6.90;74.50;;;;;;5024935;28;20140;-65
2023/03/26 07:54:57;;;;;;;24.65;3.28;;;6.90;72.80;;;;;;5064905;28;20115;-65
2023/03/26 07:57:46;;;;;;;20.13;2.65;;;6.90;68.00;;;;;;5064367;28;20072;-65
2023/03/26 08:00:21;;;;;;;22.83;2.85;;;7.00;70.10;;;;;;5069128;28;20041;-65
2023/03/26 08:03:14;;;;;;;24.33;3.75;;;7.10;70.30;;;;;;5069387;28;20044;-65
2023/03/26 08:06:08;;;;;;;23.05;2.97;;;7.00;65.60;;;;;;5049816;28;20048;-65
2023/03/26 08:08:44;;;;;;;19.98;2.47;;;7.00;62.60;;;;;;5050810;28;20139;-65
2023/03/26 08:11:31;;;;;;;27.20;2.92;;;7.00;63.50;;;;;;5069071;28;20434;-65
2023/03/26 08:14:26;;;;;;;19.83;2.92;;;6.90;63.70;;;;;;5069290;28;20556;-65
2023/03/26 08:16:55;;;;;;;16.33;2.78;;;7.00;67.80;;;;;;5040001;28;20414;-65
2023/03/26 08:19:52;;;;;;;27.80;3.22;;;7.00;60.90;;;;;;5063454;28;20158;-65
2023/03/26 08:22:26;;;;;;;18.63;3.03;;;7.10;64.00;;;;;;5056525;28;20052;-65
2023/03/26 08:25:24;;;;;;;26.05;3.28;;;7.10;59.50;;;;;;5044435;28;20047;-65
2023/03/26 08:28:03;;;;;;;16.05;2.50;;;7.10;56.30;;;;;;5041603;28;20060;-65
2023/03/26 08:30:30;;;;;;;16.88;2.58;;;7.20;57.60;;;;;;5060055;28;20055;-65
2023/03/26 08:33:17;;;;;;;25.50;3.65;;;7.20;58.50;;;;;;5050665;28;20127;-65
2023/03/26 08:35:44;;;;;;;23.85;3.65;;;7.30;58.20;;;;;;5055164;28;20055;-65
2023/03/26 08:38:12;;;;;;;18.30;3.15;;;7.40;56.50;;;;;;5050338;28;20048;-65
2023/03/26 08:40:44;;;;;;;23.08;2.40;;;7.40;55.00;;;;;;5031419;28;20048;-65
2023/03/26 08:43:30;;;;;;;40.50;3.58;;;7.40;53.60;;;;;;5065489;28;20040;-65
2023/03/26 08:46:31;;;;;;;22.15;2.97;;;7.40;49.20;;;;;;5061719;28;20041;-65
2023/03/26 08:49:28;;;;;;;21.83;2.90;;;7.50;51.20;;;;;;4940912;28;20051;-65
2023/03/26 08:52:18;;;;;;;26.33;3.25;;;7.60;44.90;;;;;;5042166;28;20469;-65
2023/03/26 08:54:47;;;;;;;17.25;2.97;;;7.70;48.80;;;;;;5055045;28;20671;-65
2023/03/26 08:57:19;;;;;;;21.20;2.63;;;7.90;49.40;;;;;;5054116;28;20044;-65
2023/03/26 09:00:34;;;;;;;16.65;2.67;;;8.00;48.00;;;;;;5052366;28;20046;-65
2023/03/26 09:03:15;;;;;;;24.33;3.45;;;8.00;47.20;;;;;;4956084;28;20051;-65
2023/03/26 09:05:46;;;;;;;;;;;7.90;47.50;;;;;;5058458;28;20075;-65
2023/03/26 09:08:30;;;;;;;16.65;2.95;;;7.80;45.00;;;;;;5050756;28;19967;-65
2023/03/26 09:11:26;;;;;;;25.83;3.30;;;7.90;47.40;;;;;;5048566;28;20389;-65
2023/03/26 09:14:26;;;;;;;17.45;1.92;;;7.80;42.70;;;;;;5050240;28;20103;-64
2023/03/26 09:17:30;;;;;;;14.65;2.38;;;7.80;44.50;;;;;;5058996;28;20549;-65
2023/03/26 09:20:33;;;;;;;16.80;2.85;;;7.70;46.30;;;;;;5068047;28;20131;-65
2023/03/26 09:23:20;;;;;;;20.90;3.10;;;7.80;51.50;;;;;;5068922;28;20040;-65
2023/03/26 09:26:12;;;;;;;22.50;2.83;;;8.00;50.10;;;;;;5067624;28;20048;-65
2023/03/26 09:29:18;;;;;;;17.65;3.13;;;7.70;43.90;;;;;;5044004;28;20056;-65
2023/03/26 09:32:11;;;;;;;22.52;2.72;;;7.60;47.10;;;;;;5068381;28;20343;-65
2023/03/26 09:34:48;;;;;;;19.45;2.67;;;7.60;49.40;;;;;;5067388;28;20074;-65
2023/03/26 09:37:27;;;;;;;24.35;2.85;;;7.80;48.60;;;;;;5067688;28;20498;-65
2023/03/26 09:39:59;;;;;;;22.20;3.97;;;7.80;42.10;;;;;;5049518;28;20499;-65
2023/03/26 09:42:52;;;;;;;12.93;2.53;;;8.00;45.90;;;;;;5067798;28;20399;-65
2023/03/26 09:45:30;;;;;;;15.50;2.60;;;8.00;43.00;;;;;;5067804;28;20071;-65
2023/03/26 09:48:14;;;;;;;19.10;2.97;;;8.00;45.80;;;;;;5067300;28;20056;-65
2023/03/26 09:50:52;;;;;;;23.67;3.30;;;8.10;43.70;;;;;;5067068;28;20049;-65
2023/03/26 09:53:50;;;;;;;16.90;2.55;;;8.10;43.20;;;;;;5064088;28;20566;-65
2023/03/26 09:56:51;;;;;;;23.60;3.88;;;7.90;43.40;;;;;;5064464;28;20313;-65
2023/03/26 09:59:22;;;;;;;17.90;2.67;;;7.80;43.50;;;;;;5060495;28;20540;-65
2023/03/26 10:02:14;;;;;;;18.83;3.05;;;7.70;39.40;;;;;;5065425;28;20044;-65
2023/03/26 10:04:49;;;;;;;18.15;3.00;;;7.60;43.20;;;;;;5048822;28;20050;-65
2023/03/26 10:08:02;;;;;;;14.02;2.42;;;7.50;40.70;;;;;;5067012;28;20143;-65
2023/03/26 10:11:06;;;;;;;16.92;2.45;;;7.80;41.60;;;;;;5009235;28;20553;-65
2023/03/26 10:13:52;;;;;;;18.45;2.38;;;8.20;45.40;;;;;;5039532;28;20049;-65
2023/03/26 10:16:33;;;;;;;14.13;2.42;;;8.50;37.40;;;;;;5044585;28;20052;-64
2023/03/26 10:19:27;;;;;;;16.77;2.72;;;8.60;42.50;;;;;;5062023;28;20066;-65
2023/03/26 10:21:53;;;;;;;19.25;2.55;;;8.40;37.40;;;;;;5064055;28;20123;-64
2023/03/26 10:24:39;;;;;;;17.25;2.85;;;8.20;35.30;;;;;;5064548;28;20182;-64
2023/03/26 10:27:15;;;;;;;22.55;2.80;;;8.00;38.90;;;;;;5063448;28;20058;-65
2023/03/26 10:30:18;;;;;;;14.93;2.47;;;7.90;39.60;;;;;;5032198;28;20384;-64
2023/03/26 10:32:56;;;;;;;11.13;2.63;;;8.00;40.80;;;;;;5045215;28;20109;-64
2023/03/26 10:35:54;;;;;;;26.20;3.53;;;8.10;35.80;;;;;;5048600;28;20044;-64
2023/03/26 10:38:22;;;;;;;14.77;2.65;;;8.10;40.10;;;;;;5065693;28;20063;-64
2023/03/26 10:41:04;;;;;;;16.10;2.90;;;8.00;43.50;;;;;;5054697;28;20055;-64
2023/03/26 10:43:42;;;;;;;14.32;2.50;;;8.00;40.40;;;;;;5063066;28;20036;-65
2023/03/26 10:46:14;;;;;;;27.77;3.67;;;7.80;39.10;;;;;;5032471;28;20047;-64
2023/03/26 10:49:16;;;;;;;14.35;2.22;;;7.80;42.40;;;;;;5047223;28;20114;-64
2023/03/26 10:52:16;;;;;;;13.70;2.33;;;7.80;40.60;;;;;;5004039;28;20086;-64
2023/03/26 10:55:02;;;;;;;15.25;2.70;;;7.70;44.30;;;;;;5031136;28;20510;-64
2023/03/26 10:57:43;;;;;;;18.35;2.78;;;7.60;40.80;;;;;;5028895;28;20507;-64
2023/03/26 11:00:26;;;;;;;17.25;2.70;;;7.60;40.00;;;;;;5063529;28;20110;-64
2023/03/26 11:03:19;;;;;;;17.83;2.78;;;7.70;38.30;;;;;;5056282;28;20380;-64
2023/03/26 11:05:45;;;;;;;18.67;2.45;;;7.90;39.30;;;;;;5042804;28;20544;-64
2023/03/26 11:08:17;;;;;;;20.98;2.47;;;8.10;36.80;;;;;;5038129;28;20037;-64
2023/03/26 11:10:54;;;;;;;13.10;2.33;;;8.20;37.30;;;;;;5037125;28;20056;-64
2023/03/26 11:13:38;;;;;;;13.57;2.72;;;8.40;37.80;;;;;;5029495;28;20045;-64
2023/03/26 11:16:31;;;;;;;15.05;2.90;;;8.30;38.20;;;;;;5021622;28;20053;-64
2023/03/26 11:19:58;;;;;;;19.77;2.70;;;8.30;36.90;;;;;;5060723;28;20131;-64
2023/03/26 11:22:42;;;;;;;16.33;2.33;;;8.30;36.70;;;;;;5004162;28;20069;-64
2023/03/26 11:25:24;;;;;;;17.13;2.78;;;8.70;37.00;;;;;;5049869;28;20061;-64
2023/03/26 11:28:15;;;;;;;17.90;2.28;;;8.90;37.60;;;;;;5065762;28;20457;-64
2023/03/26 11:31:02;;;;;;;18.65;2.42;;;9.30;36.40;;;;;;5042505;28;20032;-64
2023/03/26 11:33:36;;;;;;;16.65;2.13;;;9.70;35.70;;;;;;5058124;28;20048;-64
2023/03/26 11:36:28;;;;;;;15.10;2.10;;;9.70;28.70;;;;;;5047775;28;20074;-64
2023/03/26 11:38:58;;;;;;;18.63;2.45;;;9.50;27.80;;;;;;5055758;28;20041;-64
2023/03/26 11:41:27;;;;;;;17.95;2.83;;;9.40;33.20;;;;;;5066601;28;20045;-64
2023/03/26 11:44:47;;;;;;;18.63;2.85;;;9.00;36.70;;;;;;5038439;28;20399;-64
2023/03/26 11:47:17;;;;;;;14.25;2.75;;;8.80;32.10;;;;;;4981168;28;20129;-63
2023/03/26 11:49:46;;;;;;;16.40;2.47;;;8.80;40.20;;;;;;5052123;28;20048;-63
2023/03/26 11:52:14;;;;;;;21.73;2.60;;;8.60;30.30;;;;;;5065418;28;20653;-63
2023/03/26 11:54:42;;;;;;;16.80;2.15;;;8.50;33.20;;;;;;5031427;28;20094;-63
2023/03/26 11:57:14;;;;;;;22.33;2.83;;;8.40;35.50;;;;;;5064962;28;20049;-64
2023/03/26 11:59:58;;;;;;;13.07;3.20;;;8.30;40.60;;;;;;5066203;28;20402;-63
2023/03/26 12:02:37;;;;;;;16.00;2.42;;;8.40;42.70;;;;;;5066356;28;20080;-64
2023/03/26 12:05:14;;;;;;;23.35;4.00;;;8.20;36.30;;;;;;5050695;28;20083;-63
2023/03/26 12:08:01;;;;;;;11.52;2.25;;;8.10;38.20;;;;;;5038190;28;20052;-64
2023/03/26 12:10:31;;;;;;;13.07;2.10;;;8.00;37.70;;;;;;5055606;28;20419;-63
2023/03/26 12:13:00;;;;;;;11.85;2.60;;;8.00;37.20;;;;;;5058812;28;20056;-63
2023/03/26 12:15:27;;;;;;;20.13;2.08;;;8.00;34.50;;;;;;5069561;28;20052;-63
2023/03/26 12:17:56;;;;;;;21.00;3.47;;;7.90;34.10;;;;;;5068318;28;20048;-63
2023/03/26 12:20:25;;;;;;;13.75;2.50;;;8.00;35.40;;;;;;5045286;28;20033;-63
2023/03/26 12:23:00;;;;;;;16.65;2.60;;;8.00;36.30;;;;;;5066818;28;20048;-63
2023/03/26 12:25:28;;;;;;;23.25;2.50;;;8.10;37.30;;;;;;5069294;28;20816;-63
2023/03/26 12:28:14;;;;;;;12.38;2.22;;;8.20;36.10;;;;;;5069345;28;20048;-63
2023/03/26 12:30:53;;;;;;;18.25;2.55;;;8.40;34.60;;;;;;5068985;28;20135;-63
2023/03/26 12:33:25;;;;;;;15.93;2.47;;;8.30;35.70;;;;;;5068504;28;20139;-63
2023/03/26 12:35:52;;;;;;;14.63;2.17;;;8.30;35.00;;;;;;5051158;28;20495;-63
2023/03/26 12:38:29;;;;;;;16.98;2.30;;;8.20;34.30;;;;;;5050815;28;20086;-63
2023/03/26 12:41:12;;;;;;;16.58;1.92;;;8.30;35.80;;;;;;5034364;28;20067;-61
2023/03/26 12:43:52;;;;;;;13.18;2.47;;;8.30;35.30;;;;;;5052726;28;20044;-60
2023/03/26 12:46:29;;;;;;;21.88;2.60;;;8.20;33.30;;;;;;5063375;28;20047;-61
2023/03/26 12:48:58;;;;;;;12.48;2.60;;;8.10;35.10;;;;;;5068398;28;20059;-61
2023/03/26 12:51:30;;;;;;;18.80;2.55;;;8.20;34.70;;;;;;5033906;28;20055;-61
2023/03/26 12:54:08;;;;;;;15.48;2.28;;;8.20;35.30;;;;;;5050386;28;20326;-60
2023/03/26 12:57:29;;;;;;;15.70;2.45;;;8.10;36.10;;;;;;5049671;28;20049;-61
2023/03/26 13:00:13;;;;;;;14.85;2.53;;;8.20;33.50;;;;;;4998433;28;20050;-61
2023/03/26 13:02:49;;;;;;;10.20;2.17;;;8.20;38.50;;;;;;5061188;28;20052;-61
2023/03/26 13:05:33;;;;;;;11.60;2.20;;;8.10;32.60;;;;;;5049293;28;20688;-61
2023/03/26 13:08:42;;;;;;;15.02;2.33;;;8.40;36.70;;;;;;5068084;28;20497;-61
2023/03/26 13:11:34;;;;;;;12.95;2.30;;;9.00;42.70;;;;;;5068781;28;20080;-60
2023/03/26 13:14:00;;;;;;;18.45;2.47;;;8.60;36.60;;;;;;5048566;28;20056;-60
2023/03/26 13:16:32;;;;;;;19.38;2.67;;;8.30;38.80;;;;;;5068106;28;20056;-60
2023/03/26 13:19:20;;;;;;;21.65;2.92;;;8.00;38.10;;;;;;5067978;28;20056;-61
2023/03/26 13:22:11;;;;;;;10.57;2.05;;;7.90;41.90;;;;;;5062972;28;20079;-60
2023/03/26 13:24:54;;;;;;;11.48;2.15;;;7.90;43.40;;;;;;5068230;28;20205;-61
2023/03/26 13:27:29;;;;;;;16.30;2.85;;;7.90;42.50;;;;;;5042723;28;20153;-60
2023/03/26 13:30:34;;;;;;;13.65;2.45;;;7.80;46.70;;;;;;5050538;28;20055;-60